Home   Weather   USA   Vancouver   Past weeks
Flag for USA

Past Weather in Vancouver, Washington, USA — Yesterday and Last 2 Weeks

Currently: 41 °F. Cloudy. (Weather station: Vancouver - Pearson Airpark, USA). See more current weather

Past Weather in Vancouver — Graph

°F

Vancouver Temperature Yesterday

Maximum temperature yesterday: 44 °F (at 2:53 pm)
Minimum temperature yesterday: 38 °F (at 4:34 am)
Average temperature yesterday: 40 °F

High & Low Weather Summary for the Past Weeks

 TemperatureHumidityPressure
High60 °F (Feb 23, 2:53 pm)97% (Feb 20, 6:53 am)30.36 "Hg (Feb 20, 6:53 am)
Low34 °F (Feb 23, 2:29 am)45% (Feb 16, 5:53 pm)29.30 "Hg (Mar 1, 8:53 pm)
Average44 °F79%29.91 "Hg
* Reported Feb 16 5:53 pm — Mar 2 5:15 pm, Vancouver. Weather by CustomWeather, © 2024

Note: Actual official high and low records may vary slightly from our data, if they occured in-between our weather recording intervals... More about our weather records

Vancouver Weather History for the Previous 24 Hours

Scroll right to see more
 ConditionsComfort  
Time TempWeatherWind HumidityBarometerVisibility
5:15 pm
Sat, Mar 2
41 °FCloudy.5 mph74%29.63 "Hg10 mi
4:53 pm41 °FMostly cloudy.6 mph74%29.63 "Hg10 mi
3:53 pm41 °FMostly cloudy.6 mph76%29.61 "Hg10 mi
3:33 pm41 °FPartly sunny.9 mph76%29.62 "Hg10 mi
3:23 pm41 °FScattered clouds.9 mph76%29.62 "Hg10 mi
3:01 pm42 °FPartly sunny.8 mph76%29.61 "Hg10 mi
2:17 pm41 °FPassing clouds.13 mph76%29.59 "Hg10 mi
1:53 pm41 °FPartly sunny.10 mph80%29.59 "Hg10 mi
1:02 pm41 °FLight rain. Overcast.10 mph76%29.59 "Hg10 mi
12:29 pm43 °FCloudy.10 mph71%29.58 "Hg10 mi
11:53 am42 °FMostly cloudy.6 mph73%29.58 "Hg10 mi
11:37 am43 °FOvercast.8 mph74%29.58 "Hg10 mi
10:53 am39 °FOvercast.8 mph82%29.57 "Hg10 mi
10:38 am38 °FMostly cloudy.6 mph83%29.56 "Hg10 mi
10:03 am38 °FLight rain. Cloudy.5 mph83%29.55 "Hg10 mi
9:53 am38 °FLight rain. Mostly cloudy.8 mph83%29.55 "Hg10 mi
9:34 am38 °FCloudy.5 mph83%29.54 "Hg10 mi
8:53 am38 °FMostly cloudy.3 mph83%29.52 "Hg10 mi
8:25 am37 °FMore clouds than sun.7 mph82%29.50 "Hg10 mi
7:53 am37 °FMostly cloudy.3 mph86%29.48 "Hg10 mi
7:33 am37 °FMostly cloudy.5 mph86%29.47 "Hg10 mi
6:53 am37 °FLight rain. More clouds than sun.7 mph86%29.45 "Hg10 mi
5:53 am36 °FLight rain. Overcast.3 mph89%29.43 "Hg10 mi
4:53 am37 °FLight rain. Overcast.7 mph86%29.42 "Hg7 mi
3:53 am40 °FMostly cloudy.8 mph80%29.39 "Hg10 mi
2:53 am40 °FMostly cloudy.8 mph80%29.37 "Hg10 mi
2:14 am41 °FOvercast.8 mph76%29.37 "Hg10 mi
1:53 am41 °FOvercast.7 mph76%29.37 "Hg10 mi
12:53 am41 °FOvercast.8 mph80%29.36 "Hg10 mi
11:53 pm
Fri, Mar 1
41 °FPassing clouds.6 mph82%29.34 "Hg10 mi
10:53 pm41 °FLight rain. Overcast.5 mph82%29.34 "Hg10 mi
9:53 pm41 °FLight rain. Mostly cloudy.8 mph80%29.34 "Hg6 mi
8:53 pm43 °FOvercast.7 mph65%29.30 "Hg10 mi
7:53 pm43 °FOvercast.6 mph68%29.32 "Hg10 mi
6:53 pm42 °FMostly cloudy.8 mph76%29.36 "Hg10 mi
Weather by CustomWeather, © 2024

See weather overview